Terminal Aerodrome Forecast
Issued by NWS Sterling, VA

Current Version | Previous Version | Text Only | Print | Product List | Glossary Off
Versions: 1 2 3 4 5 6 7 8 9 10 11 12 13 14 15 16 17 18 19 20 21 22 23 24

000
FTUS41 KLWX 231721
TAFIAD
TAF
KIAD 231721Z 2318/2424 33006KT P6SM -SHRA BKN060 BKN150
     FM232200 35006KT P6SM -SHRA SCT060 BKN120
     FM240200 28004KT P6SM BKN150
     FM240800 30004KT 6SM BR SCT150
     FM241300 30008KT P6SM SCT060=

USA.gov is the U.S. government's official web portal to all federal, state and local government web resources and services.